Penguin Arrow — C6PA6 — position and weather

sailwx.info

Track history (hours):
 
Tides and Currents Weather Stations Pressure Air Temp Water Temp Dewpoint Dewpoint Depression Visibility Wind Speed Wind Dir Waves Ship Positions

Penguin Arrow

Last reported at 2015-Mar-26 13:33 UTC. Time now 2015-Apr-01 10:40 UTC.
Position N 36°01' E 120°22'.

Length 200 m; draft 10.2 m.

Type: Cargo ship. MMSI: 309927000.

Date/timePositionNaut miles runAvg speedWind from/ knotsBaromVisibWave heightAir tempDewpointWater temp
2015-Mar-26 13:33N 36°01' E 120°22'2 0.0
2015-Mar-24 12:07N 36°02' E 120°20'5 9.5
2015-Mar-24 11:33N 36°00' E 120°27'30110.0
2015-Mar-23 05:33N 31°11' E 122°10'1010.5
2015-Mar-23 04:33N 31°15' E 121°58'1110.5
2015-Mar-23 03:33N 31°18' E 121°46'1110.8
2015-Mar-23 02:33N 31°23' E 121°35'1010.5
2015-Mar-23 01:33N 31°30' E 121°25'1312.8
2015-Mar-23 00:34N 31°38' E 121°14'17 5.5
2015-Mar-22 21:27N 31°46' E 120°57'0 0.0
2015-Mar-22 11:06N 31°46' E 120°57'6 6.1
2015-Mar-22 10:09N 31°46' E 121°04'1012.4
2015-Mar-22 09:19N 31°40' E 121°13'1012.8
2015-Mar-22 08:33N 31°33' E 121°21'1211.9
2015-Mar-22 07:33N 31°25' E 121°32'9 8.4
2015-Mar-22 06:32N 31°21' E 121°40'8 8.2
2015-Mar-22 05:33N 31°17' E 121°49'1010.3
2015-Mar-22 04:33N 31°15' E 122°00'1110.7
2015-Mar-22 03:29N 31°10' E 122°12'9 9.9
2015-Mar-22 02:34N 31°06' E 122°22'10 9.6
2015-Mar-22 01:32N 31°07' E 122°34'6 6.2
2015-Mar-22 00:33N 31°07' E 122°41'7 6.7
2015-Mar-21 23:33N 31°02' E 122°47'11 7.4
2015-Mar-21 22:07N 30°57' E 122°58'4 7.6
2015-Mar-21 21:32N 30°55' E 123°02'8 7.8
2015-Mar-21 20:30N 30°51' E 123°10'51310.6
2015-Mar-19 20:15N 22°45' E 120°06'812.1
2015-Mar-19 19:33N 22°38' E 120°11'9 8.2
2015-Mar-19 18:26N 22°33' E 120°19'1 0.0
2015-Mar-18 12:14N 22°33' E 120°18'9 8.5
2015-Mar-18 11:13N 22°28' E 120°11'  
Track history (hours):
 
Tides and Currents Weather Stations Pressure Air Temp Water Temp Dewpoint Dewpoint Depression Visibility Wind Speed Wind Dir Waves Ship Positions

Penguin Arrow

Last reported at 2015-Mar-26 13:33 UTC. Time now 2015-Apr-01 10:40 UTC.
Position N 36°01' E 120°22'.

Length 200 m; draft 10.2 m.

Type: Cargo ship. MMSI: 309927000.

Date/timePositionNaut miles runAvg speedWind from/ knotsBaromVisibWave heightAir tempDewpointWater temp
2015-Mar-26 13:33N 36°01' E 120°22'2 0.0
2015-Mar-24 12:07N 36°02' E 120°20'5 9.5
2015-Mar-24 11:33N 36°00' E 120°27'30110.0
2015-Mar-23 05:33N 31°11' E 122°10'1010.5
2015-Mar-23 04:33N 31°15' E 121°58'1110.5
2015-Mar-23 03:33N 31°18' E 121°46'1110.8
2015-Mar-23 02:33N 31°23' E 121°35'1010.5
2015-Mar-23 01:33N 31°30' E 121°25'1312.8
2015-Mar-23 00:34N 31°38' E 121°14'17 5.5
2015-Mar-22 21:27N 31°46' E 120°57'0 0.0
2015-Mar-22 11:06N 31°46' E 120°57'6 6.1
2015-Mar-22 10:09N 31°46' E 121°04'1012.4
2015-Mar-22 09:19N 31°40' E 121°13'1012.8
2015-Mar-22 08:33N 31°33' E 121°21'1211.9
2015-Mar-22 07:33N 31°25' E 121°32'9 8.4
2015-Mar-22 06:32N 31°21' E 121°40'8 8.2
2015-Mar-22 05:33N 31°17' E 121°49'1010.3
2015-Mar-22 04:33N 31°15' E 122°00'1110.7
2015-Mar-22 03:29N 31°10' E 122°12'9 9.9
2015-Mar-22 02:34N 31°06' E 122°22'10 9.6
2015-Mar-22 01:32N 31°07' E 122°34'6 6.2
2015-Mar-22 00:33N 31°07' E 122°41'7 6.7
2015-Mar-21 23:33N 31°02' E 122°47'11 7.4
2015-Mar-21 22:07N 30°57' E 122°58'4 7.6
2015-Mar-21 21:32N 30°55' E 123°02'8 7.8
2015-Mar-21 20:30N 30°51' E 123°10'51310.6
2015-Mar-19 20:15N 22°45' E 120°06'812.1
2015-Mar-19 19:33N 22°38' E 120°11'9 8.2
2015-Mar-19 18:26N 22°33' E 120°19'1 0.0
2015-Mar-18 12:14N 22°33' E 120°18'9 8.5
2015-Mar-18 11:13N 22°28' E 120°11'  

Dump ship's entire track history